Time;durP1;ratioP1;P1;durP2;ratioP2;P2;SDS_P1;SDS_P2;PMS_P1;PMS_P2;Temp;Humidity;BMP_temperature;BMP_pressure;BME280_temperature;BME280_humidity;BME280_pressure;Samples;Min_cycle;Max_cycle;Signal;HPM_P1;HPM_P2
2024/01/02 00:02:06;;;;;;;;;;;;;;;18.02;61.98;100636.00;7395609;19;1342;-38
2024/01/02 00:04:35;;;;;;;;;;;;;;;18.02;61.88;100636.00;7395737;19;1480;-38
2024/01/02 00:07:03;;;;;;;;;;;;;;;17.98;62.05;100629.22;7394321;19;1668;-38
2024/01/02 00:09:31;;;;;;;;;;;;;;;17.96;62.04;100633.03;7395097;19;937;-38
2024/01/02 00:12:00;;;;;;;;;;;;;;;17.85;62.36;100650.84;7395308;19;1828;-38
2024/01/02 00:14:28;;;;;;;;;;;;;;;17.88;62.62;100637.19;7396258;19;1666;-38
2024/01/02 00:16:59;;;;;;;;;;;;;;;17.92;62.37;100628.91;7394851;19;1857;-38
2024/01/02 00:19:28;;;;;;;;;;;;;;;17.79;62.65;100610.38;7395424;19;1843;-38
2024/01/02 00:21:56;;;;;;;;;;;;;;;18.08;61.96;100616.78;7394660;19;1584;-39
2024/01/02 00:24:24;;;;;;;;;;;;;;;18.35;61.39;100611.81;7393730;19;1741;-38
2024/01/02 00:26:53;;;;;;;;;;;;;;;18.24;61.49;100624.31;7393439;19;1743;-38
2024/01/02 00:29:21;;;;;;;;;;;;;;;18.13;61.76;100616.38;7396395;19;1123;-38
2024/01/02 00:31:50;;;;;;;;;;;;;;;18.04;61.98;100614.47;7394924;19;1922;-38
2024/01/02 00:34:21;;;;;;;;;;;;;;;18.04;62.05;100635.88;7392634;19;1736;-38
2024/01/02 00:36:49;;;;;;;;;;;;;;;17.88;62.47;100626.50;7379437;19;1756;-38
2024/01/02 00:39:17;;;;;;;;;;;;;;;17.87;62.56;100606.09;7392178;19;1843;-38
2024/01/02 00:41:46;;;;;;;;;;;;;;;17.57;62.74;100587.31;7396333;19;1142;-38
2024/01/02 00:44:14;;;;;;;;;;;;;;;17.76;62.88;100616.81;7394116;19;1575;-38
2024/01/02 00:46:42;;;;;;;;;;;;;;;17.67;63.25;100623.81;7393375;19;1923;-38
2024/01/02 00:49:11;;;;;;;;;;;;;;;17.81;62.74;100619.97;7393137;19;1807;-38
2024/01/02 00:51:42;;;;;;;;;;;;;;;18.17;61.89;100625.81;7393371;19;1157;-38
2024/01/02 00:54:10;;;;;;;;;;;;;;;18.40;61.23;100620.28;7393231;19;1838;-38
2024/01/02 00:56:38;;;;;;;;;;;;;;;18.25;61.37;100617.13;7393529;19;1907;-38
2024/01/02 00:59:07;;;;;;;;;;;;;;;17.92;61.71;100578.09;7391817;19;1887;-38
2024/01/02 01:01:35;;;;;;;;;;;;;;;18.02;62.14;100616.44;7393341;19;1816;-38
2024/01/02 01:04:04;;;;;;;;;;;;;;;18.01;62.39;100620.94;7392997;19;1825;-38
2024/01/02 01:06:32;;;;;;;;;;;;;;;17.98;62.31;100609.66;7390771;19;1385;-38
2024/01/02 01:09:03;;;;;;;;;;;;;;;17.93;62.67;100627.97;7392063;19;1685;-38
2024/01/02 01:11:31;;;;;;;;;;;;;;;17.83;62.81;100626.06;7394597;19;1028;-38
2024/01/02 01:14:00;;;;;;;;;;;;;;;17.84;62.59;100625.06;7393653;19;1824;-38
2024/01/02 01:16:28;;;;;;;;;;;;;;;17.67;63.08;100620.31;7392569;19;1761;-38
2024/01/02 01:18:56;;;;;;;;;;;;;;;17.81;63.06;100619.97;7391709;19;1849;-38
2024/01/02 01:21:25;;;;;;;;;;;;;;;18.10;62.18;100619.28;7393168;19;1724;-38
2024/01/02 01:23:54;;;;;;;;;;;;;;;18.34;61.43;100626.16;7390332;19;1571;-38
2024/01/02 01:26:25;;;;;;;;;;;;;;;18.20;61.79;100635.41;7391519;19;1484;-38
2024/01/02 01:28:53;;;;;;;;;;;;;;;18.07;62.15;100638.31;7392694;19;1225;-39
2024/01/02 01:31:22;;;;;;;;;;;;;;;18.00;62.54;100629.09;7392046;19;1798;-39
2024/01/02 01:33:50;;;;;;;;;;;;;;;18.02;62.53;100643.19;7391592;19;1492;-38
2024/01/02 01:36:18;;;;;;;;;;;;;;;17.91;62.68;100625.41;7378808;19;1642;-38
2024/01/02 01:38:47;;;;;;;;;;;;;;;17.96;62.40;100630.34;7389809;19;1861;-38
2024/01/02 01:41:15;;;;;;;;;;;;;;;17.96;62.48;100611.63;7391185;19;1236;-38
2024/01/02 01:43:46;;;;;;;;;;;;;;;17.86;62.99;100624.94;7392237;19;1492;-38
2024/01/02 01:46:16;;;;;;;;;;;;;;;17.80;63.12;100625.44;7392182;19;1467;-38
2024/01/02 01:48:45;;;;;;;;;;;;;;;17.88;62.75;100631.84;7391448;19;1499;-38
2024/01/02 01:51:14;;;;;;;;;;;;;;;18.11;62.29;100639.75;7391237;19;1580;-38
2024/01/02 01:53:42;;;;;;;;;;;;;;;18.31;61.82;100621.94;7391404;19;1471;-38
2024/01/02 01:56:11;;;;;;;;;;;;;;;18.23;61.95;100630.63;7392475;19;1836;-39
2024/01/02 01:58:39;;;;;;;;;;;;;;;18.11;62.22;100631.72;7391447;19;1858;-38
2024/01/02 02:01:10;;;;;;;;;;;;;;;18.03;62.36;100634.22;7391464;19;1887;-38
2024/01/02 02:03:38;;;;;;;;;;;;;;;17.93;62.73;100617.25;7391003;19;1736;-38
2024/01/02 02:06:07;;;;;;;;;;;;;;;17.88;62.79;100620.31;7392409;19;1732;-38
2024/01/02 02:08:36;;;;;;;;;;;;;;;17.88;62.70;100606.94;7392396;19;1105;-38
2024/01/02 02:11:05;;;;;;;;;;;;;;;17.87;62.78;100626.66;7392910;19;1114;-38
2024/01/02 02:13:35;;;;;;;;;;;;;;;17.79;63.02;100611.22;7390560;19;1445;-38
2024/01/02 02:16:03;;;;;;;;;;;;;;;17.72;63.01;100604.69;7391271;19;1686;-38
2024/01/02 02:18:34;;;;;;;;;;;;;;;17.84;62.80;100609.00;7390165;19;1854;-38
2024/01/02 02:21:02;;;;;;;;;;;;;;;18.18;61.98;100618.63;7390776;19;1736;-38
2024/01/02 02:23:33;;;;;;;;;;;;;;;18.36;61.51;100613.50;7390005;19;1519;-39
2024/01/02 02:26:02;;;;;;;;;;;;;;;18.22;61.82;100602.19;7391978;19;1661;-38
2024/01/02 02:28:30;;;;;;;;;;;;;;;18.11;62.22;100621.00;7392349;19;1070;-38
2024/01/02 02:30:58;;;;;;;;;;;;;;;17.98;62.66;100612.34;7389097;19;1433;-38
2024/01/02 02:33:27;;;;;;;;;;;;;;;17.88;62.68;100604.25;7389094;19;1148;-38
2024/01/02 02:35:55;;;;;;;;;;;;;;;17.85;63.06;100616.06;7392133;19;1537;-38
2024/01/02 02:38:23;;;;;;;;;;;;;;;17.82;62.80;100616.28;7375024;19;1848;-39
2024/01/02 02:40:54;;;;;;;;;;;;;;;17.80;63.05;100606.72;7392273;19;943;-38
2024/01/02 02:43:22;;;;;;;;;;;;;;;17.76;63.12;100600.78;7390371;19;1844;-38
2024/01/02 02:45:51;;;;;;;;;;;;;;;17.75;63.04;100595.56;7389658;19;1396;-38
2024/01/02 02:48:19;;;;;;;;;;;;;;;18.02;62.53;100603.06;7391220;19;1558;-38
2024/01/02 02:50:47;;;;;;;;;;;;;;;18.21;61.97;100607.69;7389852;19;1384;-38
2024/01/02 02:53:16;;;;;;;;;;;;;;;18.25;61.72;100617.13;7388955;19;1471;-38
2024/01/02 02:55:45;;;;;;;;;;;;;;;18.15;62.17;100617.09;7391040;19;1677;-38
2024/01/02 02:58:16;;;;;;;;;;;;;;;18.04;62.17;100609.13;7393072;19;1852;-38
2024/01/02 03:00:44;;;;;;;;;;;;;;;17.89;62.88;100617.50;7397528;19;1489;-38
2024/01/02 03:03:13;;;;;;;;;;;;;;;17.87;62.98;100638.19;7398807;19;1051;-38
2024/01/02 03:05:42;;;;;;;;;;;;;;;17.85;62.94;100625.94;7399893;19;991;-38
2024/01/02 03:08:10;;;;;;;;;;;;;;;17.84;62.75;100625.06;7398201;19;1925;-38
2024/01/02 03:10:38;;;;;;;;;;;;;;;17.78;63.17;100640.78;7396919;19;1844;-38
2024/01/02 03:13:07;;;;;;;;;;;;;;;17.69;63.22;100634.38;7395307;19;1380;-38
2024/01/02 03:15:38;;;;;;;;;;;;;;;17.91;62.85;100620.06;7396665;19;1574;-38
2024/01/02 03:18:06;;;;;;;;;;;;;;;18.17;62.61;100639.22;7395710;19;1845;-38
2024/01/02 03:20:35;;;;;;;;;;;;;;;18.17;62.45;100630.34;7397501;19;1665;-38
2024/01/02 03:23:03;;;;;;;;;;;;;;;18.05;62.47;100629.56;7396618;19;1192;-38
2024/01/02 03:25:31;;;;;;;;;;;;;;;17.98;62.74;100631.06;7397123;19;1799;-38
2024/01/02 03:28:00;;;;;;;;;;;;;;;17.91;63.06;100611.19;7398033;19;1481;-38
2024/01/02 03:30:28;;;;;;;;;;;;;;;17.87;63.09;100627.50;7393398;19;1592;-38
2024/01/02 03:32:59;;;;;;;;;;;;;;;17.79;63.23;100626.44;7396958;19;1685;-38
2024/01/02 03:35:27;;;;;;;;;;;;;;;17.84;63.07;100625.06;7397092;19;1495;-38
2024/01/02 03:37:56;;;;;;;;;;;;;;;17.64;63.71;100623.22;7381490;19;1827;-38
2024/01/02 03:40:24;;;;;;;;;;;;;;;17.82;63.26;100632.34;7394106;19;1865;-38
2024/01/02 03:42:52;;;;;;;;;;;;;;;17.99;62.83;100616.72;7394433;19;1898;-38
2024/01/02 03:45:21;;;;;;;;;;;;;;;18.18;62.63;100643.56;7396687;19;1533;-38
2024/01/02 03:47:49;;;;;;;;;;;;;;;18.08;62.68;100631.97;7396395;19;1599;-38
2024/01/02 03:50:20;;;;;;;;;;;;;;;17.97;62.89;100627.56;7394928;19;1124;-38
2024/01/02 03:52:49;;;;;;;;;;;;;;;17.87;62.88;100629.31;7396696;19;1860;-38
2024/01/02 03:55:17;;;;;;;;;;;;;;;17.89;62.92;100644.25;7395399;19;1582;-38
2024/01/02 03:57:46;;;;;;;;;;;;;;;17.86;62.88;100639.16;7394054;19;1215;-38
2024/01/02 04:00:15;;;;;;;;;;;;;;;17.72;63.61;100646.63;7389363;19;1944;-38
2024/01/02 04:02:43;;;;;;;;;;;;;;;17.66;63.97;100659.53;7390922;19;1471;-38
2024/01/02 04:05:12;;;;;;;;;;;;;;;18.27;62.42;100647.28;7394023;19;1698;-38
2024/01/02 04:07:43;;;;;;;;;;;;;;;18.83;61.21;100640.59;7396883;19;1004;-38
2024/01/02 04:10:12;;;;;;;;;;;;;;;19.06;60.19;100635.88;7393262;19;1409;-38
2024/01/02 04:12:40;;;;;;;;;;;;;;;18.77;60.90;100635.78;7393379;19;1899;-38
2024/01/02 04:15:08;;;;;;;;;;;;;;;18.49;61.78;100643.56;7396019;19;1389;-38
2024/01/02 04:17:37;;;;;;;;;;;;;;;18.28;62.30;100622.19;7394412;19;1705;-38
2024/01/02 04:20:05;;;;;;;;;;;;;;;18.24;62.35;100627.00;7393671;19;1836;-38
2024/01/02 04:22:34;;;;;;;;;;;;;;;18.34;62.12;100621.66;7396425;19;1129;-38
2024/01/02 04:25:05;;;;;;;;;;;;;;;18.40;62.29;100641.69;7395578;19;1398;-38
2024/01/02 04:27:33;;;;;;;;;;;;;;;18.31;62.25;100626.47;7394536;19;1761;-38
2024/01/02 04:30:02;;;;;;;;;;;;;;;18.20;62.47;100635.41;7391165;19;1921;-38
2024/01/02 04:32:30;;;;;;;;;;;;;;;18.24;62.42;100635.03;7396454;19;1021;-38
2024/01/02 04:34:59;;;;;;;;;;;;;;;18.45;61.99;100644.81;7394715;19;1496;-38
2024/01/02 04:37:27;;;;;;;;;;;;;;;18.44;62.04;100637.75;7377871;19;1729;-38
2024/01/02 04:39:56;;;;;;;;;;;;;;;18.34;62.27;100642.22;7392728;19;1860;-38
2024/01/02 04:42:26;;;;;;;;;;;;;;;18.22;62.18;100650.38;7392766;19;1669;-45
2024/01/02 04:44:55;;;;;;;;;;;;;;;18.29;62.34;100646.16;7391941;19;1848;-38
2024/01/02 04:47:23;;;;;;;;;;;;;;;18.45;62.05;100660.91;7395047;19;1569;-38
2024/01/02 04:49:51;;;;;;;;;;;;;;;18.68;61.42;100653.50;7395131;19;1449;-39
2024/01/02 04:52:20;;;;;;;;;;;;;;;19.03;60.48;100644.16;7394691;19;1579;-38
2024/01/02 04:54:46;;;;;;;;;;;;;;;19.12;60.11;100653.19;7392644;19;1551;-38
2024/01/02 04:57:15;;;;;;;;;;;;;;;19.10;60.12;100641.78;7393760;19;1812;-38
2024/01/02 04:59:48;;;;;;;;;;;;;;;19.06;60.46;100643.91;7393495;19;1857;-38
2024/01/02 05:02:22;;;;;;;;;;;;;;;19.11;60.42;100644.31;7394157;19;1689;-38
2024/01/02 05:04:51;;;;;;;;;;;;;;;19.12;60.31;100666.59;7393309;19;1492;-38
2024/01/02 05:07:19;;;;;;;;;;;;;;;19.13;60.26;100663.78;7393778;19;1712;-38
2024/01/02 05:09:47;;;;;;;;;;;;;;;19.13;60.11;100663.78;7389520;19;1286;-38
2024/01/02 05:12:17;;;;;;;;;;;;;;;19.16;60.13;100659.97;7392930;19;1740;-38
2024/01/02 05:14:48;;;;;;;;;;;;;;;19.17;60.43;100677.78;7393298;19;1607;-38
2024/01/02 05:17:17;;;;;;;;;;;;;;;19.13;60.22;100677.19;7394709;19;1724;-38
2024/01/02 05:19:45;;;;;;;;;;;;;;;19.13;60.40;100677.19;7392853;19;1836;-38
2024/01/02 05:22:13;;;;;;;;;;;;;;;19.19;60.43;100678.47;7391584;19;1848;-38
2024/01/02 05:24:42;;;;;;;;;;;;;;;19.13;60.49;100660.28;7392196;19;1791;-38
2024/01/02 05:27:10;;;;;;;;;;;;;;;19.13;60.42;100684.41;7391607;19;1488;-38
2024/01/02 05:29:38;;;;;;;;;;;;;;;19.16;60.30;100671.56;7392996;19;1171;-38
2024/01/02 05:32:09;;;;;;;;;;;;;;;19.16;60.54;100665.34;7391984;19;1535;-38
2024/01/02 05:34:38;;;;;;;;;;;;;;;19.20;60.49;100698.91;7391568;19;1504;-38
2024/01/02 05:37:06;;;;;;;;;;;;;;;19.18;60.41;100690.16;7387654;19;1808;-39
2024/01/02 05:39:34;;;;;;;;;;;;;;;19.14;60.40;100689.63;7386523;19;1858;-38
2024/01/02 05:42:03;;;;;;;;;;;;;;;19.12;60.75;100693.41;7391064;19;1515;-38
2024/01/02 05:44:31;;;;;;;;;;;;;;;19.19;60.25;100686.53;7393268;19;1117;-38
2024/01/02 05:46:59;;;;;;;;;;;;;;;19.27;60.21;100700.06;7392829;19;1738;-38
2024/01/02 05:49:30;;;;;;;;;;;;;;;19.30;60.22;100694.44;7390502;19;1449;-38
2024/01/02 05:51:58;;;;;;;;;;;;;;;19.33;60.17;100699.50;7388906;19;1801;-39
2024/01/02 05:54:27;;;;;;;;;;;;;;;19.39;59.84;100723.09;7390964;19;1511;-38
2024/01/02 05:56:55;;;;;;;;;;;;;;;19.35;60.01;100712.78;7390993;19;1689;-38
2024/01/02 05:59:23;;;;;;;;;;;;;;;19.38;59.91;100720.56;7391067;19;1846;-38
2024/01/02 06:01:52;;;;;;;;;;;;;;;19.31;60.02;100706.00;7391003;19;1815;-38
2024/01/02 06:04:20;;;;;;;;;;;;;;;19.33;59.92;100702.19;7390694;19;1215;-38
2024/01/02 06:06:51;;;;;;;;;;;;;;;19.33;60.14;100704.88;7391178;19;1723;-38
2024/01/02 06:09:19;;;;;;;;;;;;;;;19.41;59.92;100713.06;7392174;19;1499;-38
2024/01/02 06:11:48;;;;;;;;;;;;;;;19.38;59.84;100708.00;7392643;19;1010;-37
2024/01/02 06:14:16;;;;;;;;;;;;;;;19.38;60.04;100720.56;7391286;19;1774;-37
2024/01/02 06:16:44;;;;;;;;;;;;;;;19.38;59.97;100718.72;7390226;19;1583;-38
2024/01/02 06:19:17;;;;;;;;;;;;;;;19.40;59.86;100710.56;7389807;19;1895;-38
2024/01/02 06:21:46;;;;;;;;;;;;;;;19.45;59.95;100735.09;7390850;19;1470;-38
2024/01/02 06:24:17;;;;;;;;;;;;;;;19.47;59.73;100733.13;7388978;19;1574;-38
2024/01/02 06:26:45;;;;;;;;;;;;;;;19.44;59.83;100736.09;7389095;19;1563;-38
2024/01/02 06:29:14;;;;;;;;;;;;;;;19.49;59.76;100733.81;7389847;19;1409;-38
2024/01/02 06:31:42;;;;;;;;;;;;;;;19.46;59.67;100729.59;7390828;19;1768;-38
2024/01/02 06:34:11;;;;;;;;;;;;;;;19.54;59.78;100744.16;7397393;19;1488;-38
2024/01/02 06:36:39;;;;;;;;;;;;;;;19.63;59.92;100754.88;7395388;19;1461;-38
2024/01/02 06:39:08;;;;;;;;;;;;;;;19.55;59.47;100745.84;7382036;19;1856;-38
2024/01/02 06:41:39;;;;;;;;;;;;;;;19.54;59.76;100755.72;7396339;19;1324;-39
2024/01/02 06:44:07;;;;;;;;;;;;;;;19.67;59.65;100745.56;7390573;19;1912;-38
2024/01/02 06:46:35;;;;;;;;;;;;;;;19.62;59.89;100742.47;7398332;19;1580;-38
2024/01/02 06:49:03;;;;;;;;;;;;;;;19.29;60.39;100743.69;7397866;19;1538;-43
2024/01/02 06:51:32;;;;;;;;;;;;;;;18.98;61.32;100759.84;7397974;19;1488;-38
2024/01/02 06:54:00;;;;;;;;;;;;;;;18.77;62.04;100797.34;7396996;19;1586;-38
2024/01/02 06:56:28;;;;;;;;;;;;;;;18.61;62.61;100768.38;7396751;19;1124;-38
2024/01/02 06:58:59;;;;;;;;;;;;;;;19.04;61.36;100770.00;7397369;19;1282;-38
2024/01/02 07:01:28;;;;;;;;;;;;;;;19.38;60.72;100777.72;7395627;19;1904;-38
2024/01/02 07:03:56;;;;;;;;;;;;;;;19.31;60.57;100781.94;7395301;19;1361;-38
2024/01/02 07:06:24;;;;;;;;;;;;;;;19.01;61.11;100766.75;7386845;19;1415;-44
2024/01/02 07:08:52;;;;;;;;;;;;;;;18.67;61.55;100765.16;7391982;19;1458;-41
2024/01/02 07:11:21;;;;;;;;;;;;;;;18.55;61.99;100774.25;7394838;19;1485;-39
2024/01/02 07:13:49;;;;;;;;;;;;;;;19.03;60.31;100756.72;7393775;19;1629;-38
2024/01/02 07:16:20;;;;;;;;;;;;;;;19.34;59.23;100770.94;7395684;19;1665;-38
2024/01/02 07:18:48;;;;;;;;;;;;;;;19.31;59.07;100755.09;7396123;19;1258;-38
2024/01/02 07:21:16;;;;;;;;;;;;;;;19.03;59.66;100762.09;7394442;19;1867;-38
2024/01/02 07:23:42;;;;;;;;;;;;;;;18.76;60.14;100759.97;7395054;19;1235;-38
2024/01/02 07:26:10;;;;;;;;;;;;;;;18.57;60.71;100761.56;7393956;19;1475;-38
2024/01/02 07:28:39;;;;;;;;;;;;;;;18.62;60.67;100745.97;7395944;19;1156;-38
2024/01/02 07:31:09;;;;;;;;;;;;;;;18.73;60.53;100766.44;7393980;19;1337;-41
2024/01/02 07:33:40;;;;;;;;;;;;;;;18.76;60.56;100770.69;7394574;19;1629;-39
2024/01/02 07:36:09;;;;;;;;;;;;;;;18.67;60.75;100778.53;7394800;19;1244;-38
2024/01/02 07:38:38;;;;;;;;;;;;;;;18.52;61.04;100784.38;7380547;19;1595;-39
2024/01/02 07:41:06;;;;;;;;;;;;;;;18.58;61.05;100770.44;7393653;19;1837;-39
2024/01/02 07:43:32;;;;;;;;;;;;;;;18.81;60.53;100773.84;7393521;19;1305;-38
2024/01/02 07:46:00;;;;;;;;;;;;;;;18.88;60.35;100759.78;7393364;19;1443;-39
2024/01/02 07:48:28;;;;;;;;;;;;;;;18.85;60.22;100764.56;7393491;19;1555;-39
2024/01/02 07:50:59;;;;;;;;;;;;;;;18.63;60.89;100763.72;7394319;19;1234;-38
2024/01/02 07:53:28;;;;;;;;;;;;;;;18.55;60.96;100766.22;7392586;19;1699;-38
2024/01/02 07:55:56;;;;;;;;;;;;;;;18.57;60.92;100777.66;7395089;19;1247;-38
2024/01/02 07:58:24;;;;;;;;;;;;;;;18.73;61.15;100779.00;7392027;19;1554;-39
2024/01/02 08:00:52;;;;;;;;;;;;;;;18.72;61.31;100775.50;7393128;19;1837;-39
2024/01/02 08:03:21;;;;;;;;;;;;;;;18.62;62.17;100802.22;7391820;19;1457;-39
2024/01/02 08:05:49;;;;;;;;;;;;;;;18.53;63.04;100813.72;7395928;19;955;-38
2024/01/02 08:08:20;;;;;;;;;;;;;;;18.60;62.66;100804.19;7395011;19;1919;-38
2024/01/02 08:10:49;;;;;;;;;;;;;;;18.77;62.41;100804.53;7393209;19;1501;-39
2024/01/02 08:13:17;;;;;;;;;;;;;;;18.85;62.12;100818.16;7392998;19;1517;-39
2024/01/02 08:15:45;;;;;;;;;;;;;;;18.80;62.08;100825.72;7394524;19;1538;-39
2024/01/02 08:18:14;;;;;;;;;;;;;;;18.56;62.76;100818.81;7391009;19;1526;-38
2024/01/02 08:20:42;;;;;;;;;;;;;;;18.49;62.85;100829.19;7392851;19;1843;-39
2024/01/02 08:23:13;;;;;;;;;;;;;;;18.56;63.04;100813.47;7390864;19;1729;-39
2024/01/02 08:25:44;;;;;;;;;;;;;;;18.79;62.42;100840.97;7386734;19;2298;-40
2024/01/02 08:28:13;;;;;;;;;;;;;;;19.13;61.41;100813.06;7384987;19;1765;-39
2024/01/02 08:30:41;;;;;;;;;;;;;;;19.17;61.17;100825.19;7394122;19;1537;-40
2024/01/02 08:33:09;;;;;;;;;;;;;;;19.17;60.98;100833.25;7395049;19;1643;-39
2024/01/02 08:35:37;;;;;;;;;;;;;;;19.36;60.54;100827.09;7392188;19;1213;-39
2024/01/02 08:38:06;;;;;;;;;;;;;;;19.39;60.45;100833.03;7378533;19;1417;-39
2024/01/02 08:40:34;;;;;;;;;;;;;;;19.20;60.81;100812.38;7393285;19;1849;-39
2024/01/02 08:43:06;;;;;;;;;;;;;;;19.14;60.87;100828.13;7395413;19;1766;-39
2024/01/02 08:45:35;;;;;;;;;;;;;;;19.23;60.63;100836.22;7392574;19;1584;-39
2024/01/02 08:48:03;;;;;;;;;;;;;;;19.15;60.80;100819.97;7392303;19;1632;-38
2024/01/02 08:50:31;;;;;;;;;;;;;;;19.15;61.00;100819.97;7391828;19;1401;-39
2024/01/02 08:53:00;;;;;;;;;;;;;;;19.17;60.95;100822.53;7394056;19;1384;-38
2024/01/02 08:55:28;;;;;;;;;;;;;;;19.12;60.85;100804.19;7390427;19;1595;-38
2024/01/02 08:57:56;;;;;;;;;;;;;;;19.05;61.18;100808.38;7390858;19;1400;-38
2024/01/02 09:00:27;;;;;;;;;;;;;;;19.10;61.32;100826.72;7390294;19;1850;-38
2024/01/02 09:02:56;;;;;;;;;;;;;;;19.13;61.05;100805.00;7388964;19;1597;-38
2024/01/02 09:05:26;;;;;;;;;;;;;;;19.18;60.99;100805.44;7387930;19;1397;-39
2024/01/02 09:07:54;;;;;;;;;;;;;;;19.19;60.94;100809.84;7389606;19;1495;-38
2024/01/02 09:10:23;;;;;;;;;;;;;;;19.14;60.85;100796.84;7391746;19;1799;-38
2024/01/02 09:12:52;;;;;;;;;;;;;;;19.10;61.01;100778.47;7392949;19;1397;-39
2024/01/02 09:15:20;;;;;;;;;;;;;;;19.00;61.40;100776.63;7392368;19;1396;-38
2024/01/02 09:17:51;;;;;;;;;;;;;;;19.01;61.54;100764.91;7389422;19;1566;-38
2024/01/02 09:20:20;;;;;;;;;;;;;;;19.15;61.06;100761.00;7388804;19;1861;-38
2024/01/02 09:22:48;;;;;;;;;;;;;;;19.11;61.14;100735.44;7392169;19;1467;-38
2024/01/02 09:25:18;;;;;;;;;;;;;;;19.04;61.24;100751.25;7392990;19;1512;-38
2024/01/02 09:27:46;;;;;;;;;;;;;;;19.07;61.20;100748.28;7391887;19;1108;-38
2024/01/02 09:30:15;;;;;;;;;;;;;;;19.13;60.91;100724.59;7391014;19;1412;-38
2024/01/02 09:32:44;;;;;;;;;;;;;;;19.20;60.84;100720.38;7391869;19;1575;-39
2024/01/02 09:35:15;;;;;;;;;;;;;;;19.28;60.91;100750.03;7387820;19;1545;-39
2024/01/02 09:37:43;;;;;;;;;;;;;;;19.25;60.74;100758.34;7391135;19;1598;-40
2024/01/02 09:40:16;;;;;;;;;;;;;;;19.20;60.83;100769.50;7375924;19;1878;-40
2024/01/02 09:42:53;;;;;;;;;;;;;;;19.14;60.94;100750.41;7390416;19;1487;-45
2024/01/02 09:45:26;;;;;;;;;;;;;;;19.15;60.78;100765.53;7391615;19;1512;-40
2024/01/02 09:48:06;;;;;;;;;;;;;;;19.12;61.05;100771.13;7392386;19;1499;-40
2024/01/02 09:50:43;;;;;;;;;;;;;;;19.05;60.90;100766.31;7389425;19;1348;-40
2024/01/02 09:53:23;;;;;;;;;;;;;;;19.14;61.11;100769.16;7389829;19;1163;-40
2024/01/02 09:55:55;;;;;;;;;;;;;;;19.20;60.62;100773.97;7389157;19;1149;-41
2024/01/02 09:58:28;;;;;;;;;;;;;;;19.14;60.98;100769.16;7391509;19;1171;-40
2024/01/02 10:01:03;;;;;;;;;;;;;;;19.22;60.83;100770.19;7390440;19;1844;-40
2024/01/02 10:03:40;;;;;;;;;;;;;;;19.19;60.88;100772.31;7389136;19;1226;-40
2024/01/02 10:06:23;;;;;;;;;;;;;;;19.15;60.83;100778.91;7389368;19;1836;-40
2024/01/02 10:09:00;;;;;;;;;;;;;;;19.21;60.87;100765.81;7390137;19;1683;-38
2024/01/02 10:11:31;;;;;;;;;;;;;;;19.15;60.87;100773.56;7389577;19;1507;-38
2024/01/02 10:14:02;;;;;;;;;;;;;;;19.18;60.92;100762.56;7385909;19;1377;-38
2024/01/02 10:16:37;;;;;;;;;;;;;;;19.21;60.54;100776.53;7388070;19;1362;-38
2024/01/02 10:19:10;;;;;;;;;;;;;;;19.24;60.57;100775.44;7390577;19;1626;-38
2024/01/02 10:21:44;;;;;;;;;;;;;;;19.21;60.73;100759.59;7389520;19;1867;-37
2024/01/02 10:24:26;;;;;;;;;;;;;;;19.32;60.45;100762.19;7388547;19;1497;-37
2024/01/02 10:27:01;;;;;;;;;;;;;;;19.36;60.28;100763.59;7388387;19;1369;-40
2024/01/02 10:29:34;;;;;;;;;;;;;;;19.32;60.81;100761.31;7389331;19;1378;-37
2024/01/02 10:32:05;;;;;;;;;;;;;;;19.26;60.75;100752.00;7388761;19;1389;-38
2024/01/02 10:34:37;;;;;;;;;;;;;;;19.36;60.88;100760.94;7390269;19;1531;-38
2024/01/02 10:37:09;;;;;;;;;;;;;;;19.44;60.54;100734.25;7390320;19;1377;-38
2024/01/02 10:39:41;;;;;;;;;;;;;;;19.55;60.06;100730.59;7390552;19;1511;-39
2024/01/02 10:42:16;;;;;;;;;;;;;;;19.54;60.39;100722.72;7388215;19;1851;-38
2024/01/02 10:44:45;;;;;;;;;;;;;;;19.56;60.16;100710.00;7387749;19;1487;-39
2024/01/02 10:47:16;;;;;;;;;;;;;;;19.60;59.78;100747.13;7385683;19;1829;-38
2024/01/02 10:49:53;;;;;;;;;;;;;;;19.65;59.59;100709.13;7391653;19;947;-38
2024/01/02 10:52:27;;;;;;;;;;;;;;;19.65;60.14;100704.59;7389114;19;1790;-39
2024/01/02 10:54:56;;;;;;;;;;;;;;;19.67;59.91;100707.16;7387957;19;1929;-39
2024/01/02 10:57:32;;;;;;;;;;;;;;;19.78;59.93;100707.06;7389539;19;1808;-39
2024/01/02 11:00:07;;;;;;;;;;;;;;;19.83;59.92;100699.41;7389101;19;1705;-39
2024/01/02 11:02:51;;;;;;;;;;;;;;;19.85;59.83;100716.22;7388436;19;1859;-38
2024/01/02 11:05:23;;;;;;;;;;;;;;;19.92;59.50;100716.50;7388323;19;1856;-38
2024/01/02 11:07:58;;;;;;;;;;;;;;;19.91;59.79;100709.44;7388739;19;1464;-38
2024/01/02 11:10:27;;;;;;;;;;;;;;;19.94;59.48;100701.09;7389461;19;1383;-39
2024/01/02 11:12:57;;;;;;;;;;;;;;;19.93;59.67;100685.97;7388919;19;1531;-39
2024/01/02 11:15:27;;;;;;;;;;;;;;;19.91;59.76;100692.50;7389007;19;1463;-39
2024/01/02 11:17:57;;;;;;;;;;;;;;;19.85;59.93;100683.16;7387495;19;1538;-39
2024/01/02 11:20:28;;;;;;;;;;;;;;;19.57;60.51;100691.06;7396896;19;1596;-38
2024/01/02 11:23:02;;;;;;;;;;;;;;;19.34;61.07;100701.22;7393746;19;1849;-39
2024/01/02 11:25:31;;;;;;;;;;;;;;;19.14;61.75;100680.72;7396496;19;1432;-39
2024/01/02 11:28:02;;;;;;;;;;;;;;;19.03;61.86;100681.69;7395891;19;1475;-39
2024/01/02 11:30:36;;;;;;;;;;;;;;;19.05;61.45;100682.41;7395449;19;1562;-38
2024/01/02 11:33:09;;;;;;;;;;;;;;;19.26;61.19;100676.94;7395878;19;1664;-38
2024/01/02 11:35:42;;;;;;;;;;;;;;;19.48;60.46;100657.06;7388393;19;1475;-38
2024/01/02 11:38:14;;;;;;;;;;;;;;;19.39;60.83;100657.88;7379256;19;1403;-38
2024/01/02 11:40:48;;;;;;;;;;;;;;;19.15;61.20;100664.50;7395431;19;1100;-39
2024/01/02 11:43:22;;;;;;;;;;;;;;;19.00;61.62;100656.03;7393785;19;1480;-39
2024/01/02 11:45:56;;;;;;;;;;;;;;;19.00;62.16;100644.44;7393231;19;1737;-39
2024/01/02 11:48:32;;;;;;;;;;;;;;;19.34;61.19;100650.28;7394172;19;1394;-39
2024/01/02 11:51:05;;;;;;;;;;;;;;;19.70;60.10;100637.13;7390259;19;1648;-38
2024/01/02 11:53:46;;;;;;;;;;;;;;;19.71;60.00;100632.59;7393684;19;1395;-39
2024/01/02 11:56:15;;;;;;;;;;;;;;;19.45;60.86;100627.81;7392716;19;1358;-39
2024/01/02 11:58:45;;;;;;;;;;;;;;;19.18;61.51;100624.03;7394722;19;2004;-39
2024/01/02 12:01:18;;;;;;;;;;;;;;;19.08;62.10;100609.78;7394370;19;1860;-39
2024/01/02 12:03:56;;;;;;;;;;;;;;;19.44;61.48;100605.53;7395119;19;1664;-39
2024/01/02 12:06:33;;;;;;;;;;;;;;;19.76;60.57;100609.75;7393119;19;1548;-39
2024/01/02 12:09:10;;;;;;;;;;;;;;;19.49;60.72;100615.81;7393654;19;1485;-39
2024/01/02 12:11:41;;;;;;;;;;;;;;;19.26;60.97;100607.25;7396554;19;1417;-39
2024/01/02 12:14:17;;;;;;;;;;;;;;;19.04;61.04;100609.19;7393170;19;1859;-39
2024/01/02 12:16:47;;;;;;;;;;;;;;;18.91;61.30;100619.31;7395017;19;1919;-39
2024/01/02 12:19:19;;;;;;;;;;;;;;;19.16;60.74;100611.72;7392779;19;1820;-39
2024/01/02 12:21:48;;;;;;;;;;;;;;;19.64;59.74;100611.72;7396086;19;1882;-39
2024/01/02 12:24:19;;;;;;;;;;;;;;;19.68;59.29;100607.75;7393520;19;1580;-39
2024/01/02 12:26:48;;;;;;;;;;;;;;;19.39;60.16;100607.78;7392215;19;1864;-38
2024/01/02 12:29:24;;;;;;;;;;;;;;;19.13;60.65;100614.69;7391824;19;1760;-38
2024/01/02 12:31:57;;;;;;;;;;;;;;;18.92;61.14;100634.44;7388955;19;1910;-39
2024/01/02 12:34:28;;;;;;;;;;;;;;;19.01;60.97;100622.88;7391069;19;1468;-39
2024/01/02 12:36:59;;;;;;;;;;;;;;;19.47;59.84;100625.84;7391010;19;1609;-39
2024/01/02 12:39:34;;;;;;;;;;;;;;;19.72;59.38;100615.56;7392562;19;1736;-39
2024/01/02 12:42:04;;;;;;;;;;;;;;;19.44;59.83;100615.41;7394342;19;1834;-39
2024/01/02 12:44:34;;;;;;;;;;;;;;;19.14;60.83;100619.06;7396767;19;1038;-39
2024/01/02 12:47:07;;;;;;;;;;;;;;;18.96;61.22;100627.81;7394732;19;1891;-39
2024/01/02 12:49:41;;;;;;;;;;;;;;;18.90;61.35;100639.09;7395862;19;1677;-39
2024/01/02 12:52:14;;;;;;;;;;;;;;;19.37;60.12;100623.16;7394738;19;1729;-39
2024/01/02 12:54:49;;;;;;;;;;;;;;;19.71;59.17;100630.78;7395570;19;1708;-39
2024/01/02 12:57:17;;;;;;;;;;;;;;;19.48;59.89;100636.44;7395183;19;1215;-39
2024/01/02 12:59:46;;;;;;;;;;;;;;;19.17;60.70;100632.19;7395088;19;1701;-40
2024/01/02 13:02:15;;;;;;;;;;;;;;;18.95;60.93;100641.34;7393433;19;1871;-39